Kamuela, Hawaii
Current Conditions -  °F | °C
As of 4:56 PM on Sunday 19 Oct 2014 (Local Time) from PHSF Reporting Station
Few Clouds Few Clouds  
Wind Chill: 67°   Ceiling: Unl
Heat Index: 67°   Visibility: 10mi
Dew Point: 56°   Wind: 8mph
Humidity: 67%   Direction: 280°W
Pressure: 30.32"   Gusts: 23mph
Location:  19.97°N, 155.78°W
Report Text: PHSF 200256Z AUTO 28007G20KT 10SM FEW210 19/13 A3032 RMK AO2 PK WND 15026/05 SLP141 T01940131 53001 $
Loading
Personal Weather Stations






























Interactive Weather Map
Tropical Storm Tracking
New forecast layout! Learn more

10-Day Weather Forecast

Advertisements
Track Severe Weather on mobile